createdAt,value
2019-01-03T00:00:57.953Z,7.97
2019-01-03T00:03:53.267Z,3.42
2019-01-03T00:06:40.930Z,4.90
2019-01-03T00:09:39.657Z,4.67
2019-01-03T00:12:40.761Z,4.70
2019-01-03T00:15:42.033Z,4.47
2019-01-03T00:18:43.506Z,3.50
2019-01-03T00:21:31.332Z,3.47
2019-01-03T00:24:18.287Z,4.97
2019-01-03T00:27:11.996Z,4.73
2019-01-03T00:30:04.495Z,4.00
2019-01-03T00:32:54.002Z,5.13
2019-01-03T00:35:46.242Z,3.22
2019-01-03T00:38:38.156Z,3.33
2019-01-03T00:41:27.297Z,3.20
2019-01-03T00:44:31.618Z,2.70
2019-01-03T00:47:20.732Z,2.47
2019-01-03T00:50:10.466Z,3.70
2019-01-03T00:52:59.579Z,3.03
2019-01-03T00:55:47.569Z,5.03
2019-01-03T00:58:34.243Z,7.60
2019-01-03T01:01:36.594Z,3.90
2019-01-03T01:04:24.659Z,5.53
2019-01-03T01:07:19.718Z,2.63
2019-01-03T01:10:08.382Z,3.33
2019-01-03T01:12:56.346Z,2.97
2019-01-03T01:15:45.473Z,3.23
2019-01-03T01:18:36.698Z,4.33
2019-01-03T01:21:24.487Z,4.03
2019-01-03T01:24:12.488Z,4.77
2019-01-03T01:27:00.115Z,4.30
2019-01-03T01:29:49.340Z,4.70
2019-01-03T01:32:33.667Z,6.73
2019-01-03T01:35:23.213Z,6.50
2019-01-03T01:38:16.893Z,3.20
2019-01-03T01:40:58.235Z,3.10
2019-01-03T01:43:56.141Z,3.63
2019-01-03T01:46:48.284Z,3.27
2019-01-03T01:49:36.217Z,6.73
2019-01-03T01:52:25.721Z,2.37
2019-01-03T01:55:13.818Z,3.15
2019-01-03T01:58:09.630Z,1.40
2019-01-03T02:01:01.770Z,5.77
2019-01-03T02:03:54.921Z,3.12
2019-01-03T02:06:56.230Z,3.90
2019-01-03T02:09:43.917Z,4.43
2019-01-03T02:12:51.729Z,2.83
2019-01-03T02:15:40.222Z,3.55
2019-01-03T02:18:38.153Z,4.83
2019-01-03T02:21:39.077Z,2.77
2019-01-03T02:24:28.229Z,4.47
2019-01-03T02:27:23.444Z,3.87
2019-01-03T02:30:21.270Z,2.63
2019-01-03T02:33:22.803Z,2.40
2019-01-03T02:36:09.370Z,1.42
2019-01-03T02:38:57.364Z,9.03
2019-01-03T02:41:52.825Z,5.13
2019-01-03T02:44:43.416Z,2.12
2019-01-03T02:47:35.274Z,1.70
2019-01-03T02:50:21.464Z,2.07
2019-01-03T02:53:20.386Z,2.80
2019-01-03T02:56:14.534Z,2.53
2019-01-03T02:59:18.958Z,3.27
2019-01-03T03:02:14.251Z,3.70
2019-01-03T03:05:02.174Z,2.10
2019-01-03T03:08:00.609Z,2.33
2019-01-03T03:11:07.853Z,1.63
2019-01-03T03:14:15.637Z,2.30
2019-01-03T03:17:07.254Z,2.10
2019-01-03T03:20:05.304Z,2.70
2019-01-03T03:22:43.514Z,3.60
2019-01-03T03:25:32.749Z,7.30
2019-01-03T03:28:40.047Z,4.03
2019-01-03T03:31:38.119Z,4.20
2019-01-03T03:34:36.443Z,2.83
2019-01-03T03:37:25.635Z,3.17
2019-01-03T03:40:14.799Z,3.50
2019-01-03T03:43:04.438Z,2.07
2019-01-03T03:45:53.580Z,1.80
2019-01-03T03:48:35.054Z,5.07
2019-01-03T03:51:24.671Z,4.93
2019-01-03T03:54:23.040Z,6.03
2019-01-03T03:57:15.206Z,3.85
2019-01-03T04:00:04.431Z,3.73
2019-01-03T04:02:52.423Z,2.17
2019-01-03T04:05:37.181Z,2.17
2019-01-03T04:08:25.328Z,5.77
2019-01-03T04:11:17.249Z,2.50
2019-01-03T04:14:00.959Z,4.63
2019-01-03T04:16:59.680Z,6.95
2019-01-03T04:19:47.658Z,3.08
2019-01-03T04:22:39.770Z,4.47
2019-01-03T04:25:27.795Z,2.20
2019-01-03T04:28:35.670Z,3.27
2019-01-03T04:31:31.413Z,3.50
2019-01-03T04:34:29.996Z,4.83
2019-01-03T04:37:22.321Z,2.73
2019-01-03T04:40:23.804Z,3.47
2019-01-03T04:43:13.255Z,4.05
2019-01-03T04:46:08.808Z,7.93
2019-01-03T04:48:53.689Z,4.77
2019-01-03T04:51:49.401Z,3.45
2019-01-03T04:54:44.496Z,12.83
2019-01-03T04:57:31.279Z,3.47
2019-01-03T05:00:29.363Z,6.77
2019-01-03T05:03:17.840Z,4.47
2019-01-03T05:06:07.141Z,3.54
2019-01-03T05:08:54.742Z,4.17
2019-01-03T05:11:44.255Z,4.47
2019-01-03T05:14:33.714Z,3.63
2019-01-03T05:17:21.834Z,4.97
2019-01-03T05:20:14.448Z,2.35
2019-01-03T05:23:18.977Z,4.83
2019-01-03T05:26:01.050Z,3.07
2019-01-03T05:28:59.664Z,2.57
2019-01-03T05:31:53.096Z,8.10
2019-01-03T05:34:41.180Z,5.17
2019-01-03T05:37:33.111Z,7.93
2019-01-03T05:40:21.033Z,7.07
2019-01-03T05:43:08.870Z,4.50
2019-01-03T05:46:00.955Z,2.60
2019-01-03T05:48:49.125Z,3.20
2019-01-03T05:51:50.695Z,3.17
2019-01-03T05:54:38.693Z,3.40
2019-01-03T05:57:46.321Z,9.63
2019-01-03T06:00:34.541Z,2.50
2019-01-03T06:03:23.658Z,3.77
2019-01-03T06:06:23.340Z,5.12
2019-01-03T06:09:12.525Z,5.40
2019-01-03T06:12:00.732Z,4.53
2019-01-03T06:14:59.299Z,3.42
2019-01-03T06:17:52.541Z,4.90
2019-01-03T06:20:59.904Z,6.37
2019-01-03T06:23:48.110Z,2.80
2019-01-03T06:26:35.831Z,4.03
2019-01-03T06:29:24.127Z,4.12
2019-01-03T06:32:14.572Z,5.00
2019-01-03T06:35:09.670Z,6.70
2019-01-03T06:38:13.748Z,4.90
2019-01-03T06:41:21.464Z,5.23
2019-01-03T06:44:10.606Z,3.33
2019-01-03T06:46:59.263Z,6.60
2019-01-03T06:49:57.435Z,4.93
2019-01-03T06:52:58.627Z,3.43
2019-01-03T06:55:59.774Z,4.30
2019-01-03T06:58:47.854Z,6.93
2019-01-03T07:01:52.189Z,3.63
2019-01-03T07:04:47.097Z,6.50
2019-01-03T07:07:41.812Z,2.45
2019-01-03T07:10:29.948Z,5.75
2019-01-03T07:13:18.042Z,12.37
2019-01-03T07:16:06.385Z,6.10
2019-01-03T07:19:01.417Z,3.83
2019-01-03T07:21:49.574Z,2.80
2019-01-03T07:24:53.935Z,4.60
2019-01-03T07:27:58.509Z,5.58
2019-01-03T07:30:50.372Z,7.10
2019-01-03T07:33:38.327Z,6.67
2019-01-03T07:36:28.822Z,6.33
2019-01-03T07:39:18.396Z,4.57
2019-01-03T07:42:20.143Z,5.00
2019-01-03T07:45:08.527Z,6.80
2019-01-03T07:48:06.461Z,5.77
2019-01-03T07:51:01.360Z,6.53
2019-01-03T07:53:49.523Z,5.47
2019-01-03T07:56:47.763Z,6.13
2019-01-03T07:59:37.175Z,7.80
2019-01-03T08:02:27.765Z,7.33
2019-01-03T08:05:29.010Z,8.65
2019-01-03T08:08:17.706Z,8.63
2019-01-03T08:11:05.996Z,7.00
2019-01-03T08:13:51.961Z,5.03
2019-01-03T08:16:41.514Z,6.47
2019-01-03T08:19:29.309Z,7.27
2019-01-03T08:22:16.936Z,15.07
2019-01-03T08:25:01.727Z,11.17
2019-01-03T08:27:49.810Z,10.90
2019-01-03T08:30:48.444Z,8.23
2019-01-03T08:33:49.704Z,8.93
2019-01-03T08:36:38.180Z,13.60
2019-01-03T08:39:43.199Z,15.57
2019-01-03T08:42:38.511Z,8.67
2019-01-03T08:45:42.864Z,8.93
2019-01-03T08:48:27.720Z,9.38
2019-01-03T08:51:31.977Z,9.80
2019-01-03T08:54:20.353Z,9.27
2019-01-03T08:57:09.538Z,11.33
2019-01-03T09:00:01.753Z,17.47
2019-01-03T09:02:56.951Z,12.35
2019-01-03T09:05:49.435Z,12.27
2019-01-03T09:08:38.579Z,19.27
2019-01-03T09:11:37.209Z,28.53
2019-01-03T09:14:32.284Z,14.37
2019-01-03T09:17:26.533Z,13.13
2019-01-03T09:20:24.718Z,12.40
2019-01-03T09:23:13.023Z,18.20
2019-01-03T09:26:20.978Z,15.63
2019-01-03T09:29:16.197Z,11.55
2019-01-03T09:32:20.553Z,10.57
2019-01-03T09:35:15.812Z,14.37
2019-01-03T09:38:05.228Z,12.37
2019-01-03T09:41:03.629Z,9.67
2019-01-03T09:43:59.519Z,12.58
2019-01-03T09:46:30.024Z,9.63
2019-01-03T09:49:00.786Z,10.23
2019-01-03T09:51:31.523Z,10.27
2019-01-03T09:54:02.213Z,6.67
2019-01-03T09:56:32.744Z,7.30
2019-01-03T09:59:03.898Z,7.85
2019-01-03T10:01:34.621Z,6.63
2019-01-03T10:04:05.005Z,8.57
2019-01-03T10:06:35.540Z,9.43
2019-01-03T10:09:08.007Z,5.53
2019-01-03T10:11:38.716Z,8.90
2019-01-03T10:14:10.095Z,8.25
2019-01-03T10:16:40.949Z,7.47
2019-01-03T10:19:11.407Z,6.03
2019-01-03T10:21:41.779Z,9.87
2019-01-03T10:24:12.496Z,9.18
2019-01-03T10:26:42.824Z,10.70
2019-01-03T10:29:13.447Z,9.83
2019-01-03T10:31:43.879Z,6.47
2019-01-03T10:34:14.504Z,9.53
2019-01-03T10:36:45.001Z,10.87
2019-01-03T10:39:16.978Z,10.05
2019-01-03T10:41:47.627Z,8.37
2019-01-03T10:44:18.294Z,12.03
2019-01-03T10:46:48.788Z,11.07
2019-01-03T10:49:19.449Z,12.63
2019-01-03T10:51:49.830Z,11.57
2019-01-03T10:54:20.892Z,9.15
2019-01-03T10:56:51.541Z,8.27
2019-01-03T10:59:22.825Z,16.57
2019-01-03T11:01:53.573Z,10.05
2019-01-03T11:04:25.794Z,11.43
2019-01-03T11:06:56.718Z,11.07
2019-01-03T11:09:27.133Z,10.47
2019-01-03T11:11:57.745Z,9.13
2019-01-03T11:14:28.598Z,10.53
2019-01-03T11:16:58.977Z,8.60
2019-01-03T11:19:30.884Z,12.53
2019-01-03T11:22:01.656Z,8.27
2019-01-03T11:24:32.049Z,9.23
2019-01-03T11:27:02.546Z,11.80
2019-01-03T11:29:32.996Z,9.60
2019-01-03T11:32:03.643Z,10.32
2019-01-03T11:34:34.354Z,10.15
2019-01-03T11:37:05.092Z,9.53
2019-01-03T11:39:36.906Z,11.95
2019-01-03T11:42:07.521Z,8.63
2019-01-03T11:44:38.088Z,12.20
2019-01-03T11:47:08.517Z,9.77
2019-01-03T11:49:38.909Z,11.07
2019-01-03T11:52:10.699Z,12.10
2019-01-03T11:54:41.512Z,8.80
2019-01-03T11:57:11.857Z,9.73
2019-01-03T11:59:44.099Z,9.53
2019-01-03T12:02:14.504Z,13.13
2019-01-03T12:04:44.874Z,14.00
2019-01-03T12:07:15.677Z,10.77
2019-01-03T12:09:46.063Z,6.87
2019-01-03T12:12:16.728Z,11.33
2019-01-03T12:14:47.551Z,12.03
2019-01-03T12:17:18.116Z,22.03
2019-01-03T12:19:49.823Z,17.57
2019-01-03T12:22:20.341Z,32.87
2019-01-03T12:24:50.684Z,26.30
2019-01-03T12:27:21.341Z,24.52
2019-01-03T12:29:51.857Z,22.17
2019-01-03T12:32:22.509Z,25.43
2019-01-03T12:34:52.853Z,24.63
2019-01-03T12:37:23.579Z,20.45
2019-01-03T12:39:53.914Z,12.50
2019-01-03T12:42:24.545Z,13.83
2019-01-03T12:44:55.049Z,18.73
2019-01-03T12:47:25.743Z,15.57
2019-01-03T12:49:56.385Z,14.25
2019-01-03T12:52:26.900Z,17.40
2019-01-03T12:54:57.525Z,19.85
2019-01-03T12:57:27.871Z,17.63
2019-01-03T12:59:58.653Z,15.50
2019-01-03T13:02:29.298Z,9.10
2019-01-03T13:04:59.647Z,9.73
2019-01-03T13:07:30.202Z,18.83
2019-01-03T13:10:00.558Z,18.73
2019-01-03T13:12:30.889Z,16.97
2019-01-03T13:15:01.650Z,16.77
2019-01-03T13:17:33.379Z,9.05
2019-01-03T13:20:03.784Z,15.20
2019-01-03T13:22:34.590Z,12.40
2019-01-03T13:25:05.040Z,15.73
2019-01-03T13:27:35.715Z,10.93
2019-01-03T13:30:07.526Z,12.50
2019-01-03T13:32:37.867Z,14.00
2019-01-03T13:35:08.509Z,14.77
2019-01-03T13:37:39.912Z,8.60
2019-01-03T13:40:10.658Z,13.10
2019-01-03T13:42:40.976Z,10.03
2019-01-03T13:45:11.675Z,12.10
2019-01-03T13:47:42.002Z,11.73
2019-01-03T13:50:12.644Z,9.75
2019-01-03T13:52:43.396Z,10.85
2019-01-03T13:55:13.939Z,14.17
2019-01-03T13:57:44.533Z,14.17
2019-01-03T14:00:14.998Z,22.00
2019-01-03T14:02:45.518Z,16.57
2019-01-03T14:05:15.959Z,16.03
2019-01-03T14:07:46.699Z,15.53
2019-01-03T14:10:17.362Z,22.45
2019-01-03T14:12:47.757Z,20.17
2019-01-03T14:15:18.585Z,23.05
2019-01-03T14:17:48.928Z,22.70
2019-01-03T14:20:19.525Z,17.43
2019-01-03T14:22:50.013Z,18.35
2019-01-03T14:25:20.527Z,25.93
2019-01-03T14:27:50.903Z,14.40
2019-01-03T14:30:21.757Z,10.70
2019-01-03T14:32:52.904Z,15.88
2019-01-03T14:35:23.574Z,11.67
2019-01-03T14:37:54.043Z,13.30
2019-01-03T14:40:24.589Z,11.47
2019-01-03T14:42:54.943Z,16.33
2019-01-03T14:45:25.847Z,11.75
2019-01-03T14:47:56.995Z,10.18
2019-01-03T14:50:27.692Z,12.27
2019-01-03T14:52:58.434Z,11.40
2019-01-03T14:55:29.158Z,15.20
2019-01-03T14:57:59.656Z,10.07
2019-01-03T15:00:30.182Z,29.67
2019-01-03T15:03:00.552Z,15.17
2019-01-03T15:05:30.906Z,19.73
2019-01-03T15:08:02.140Z,16.10
2019-01-03T15:10:34.101Z,18.40
2019-01-03T15:13:04.582Z,16.43
2019-01-03T15:15:35.050Z,11.93
2019-01-03T15:18:05.610Z,20.57
2019-01-03T15:20:35.975Z,19.27
2019-01-03T15:23:06.736Z,12.60
2019-01-03T15:25:37.546Z,17.87
2019-01-03T15:28:07.938Z,16.37
2019-01-03T15:30:38.945Z,22.80
2019-01-03T15:33:09.998Z,14.73
2019-01-03T15:35:41.245Z,15.67
2019-01-03T15:38:11.692Z,23.23
2019-01-03T15:40:42.605Z,68.33
2019-01-03T15:43:12.942Z,18.97
2019-01-03T15:45:43.855Z,14.47
2019-01-03T15:48:14.507Z,19.52
2019-01-03T15:50:46.020Z,14.90
2019-01-03T15:53:18.580Z,15.72
2019-01-03T15:55:50.393Z,19.50
2019-01-03T15:58:20.783Z,14.27
2019-01-03T16:00:51.599Z,14.25
2019-01-03T16:03:23.914Z,15.00
2019-01-03T16:05:54.441Z,17.77
2019-01-03T16:08:25.021Z,17.87
2019-01-03T16:10:55.675Z,16.23
2019-01-03T16:13:26.044Z,20.47
2019-01-03T16:15:56.682Z,18.13
2019-01-03T16:18:27.368Z,14.60
2019-01-03T16:20:58.242Z,13.13
2019-01-03T16:23:28.985Z,18.13
2019-01-03T16:25:59.642Z,14.20
2019-01-03T16:28:30.363Z,13.45
2019-01-03T16:31:00.821Z,12.80
2019-01-03T16:33:32.330Z,11.23
2019-01-03T16:36:02.717Z,17.13
2019-01-03T16:38:33.498Z,16.90
2019-01-03T16:41:03.944Z,19.23
2019-01-03T16:43:36.922Z,14.13
2019-01-03T16:46:08.143Z,16.67
2019-01-03T16:48:38.780Z,16.27
2019-01-03T16:51:09.449Z,13.97
2019-01-03T16:53:39.991Z,13.47
2019-01-03T16:56:10.508Z,18.97
2019-01-03T16:58:41.203Z,13.33
2019-01-03T17:01:12.325Z,11.57
2019-01-03T17:03:42.891Z,16.30
2019-01-03T17:06:13.766Z,13.03
2019-01-03T17:08:44.617Z,14.67
2019-01-03T17:11:14.979Z,13.17
2019-01-03T17:13:45.666Z,11.97
2019-01-03T17:16:17.032Z,12.25
2019-01-03T17:18:49.021Z,11.87
2019-01-03T17:21:19.584Z,14.97
2019-01-03T17:23:50.190Z,12.63
2019-01-03T17:26:20.812Z,11.77
2019-01-03T17:28:51.467Z,10.57
2019-01-03T17:31:21.986Z,12.60
2019-01-03T17:33:52.552Z,10.60
2019-01-03T17:36:23.909Z,9.90
2019-01-03T17:38:54.638Z,11.63
2019-01-03T17:41:26.114Z,12.53
2019-01-03T17:43:56.628Z,15.83
2019-01-03T17:46:28.527Z,9.55
2019-01-03T17:48:58.875Z,16.60
2019-01-03T17:51:29.638Z,15.40
2019-01-03T17:54:01.278Z,8.63
2019-01-03T17:56:31.824Z,15.60
2019-01-03T17:59:02.486Z,10.93
2019-01-03T18:01:33.063Z,15.13
2019-01-03T18:04:04.256Z,11.47
2019-01-03T18:06:34.763Z,13.23
2019-01-03T18:09:06.133Z,12.35
2019-01-03T18:11:36.802Z,12.47
2019-01-03T18:14:07.479Z,14.27
2019-01-03T18:16:38.967Z,10.45
2019-01-03T18:19:09.573Z,11.80
2019-01-03T18:21:39.931Z,12.80
2019-01-03T18:24:10.584Z,11.20
2019-01-03T18:26:40.958Z,13.40
2019-01-03T18:29:11.606Z,11.70
2019-01-03T18:31:42.313Z,11.00
2019-01-03T18:34:12.839Z,10.37
2019-01-03T18:36:43.466Z,12.40
2019-01-03T18:39:13.970Z,12.97
2019-01-03T18:41:44.544Z,14.47
2019-01-03T18:44:14.933Z,15.65
2019-01-03T18:46:45.697Z,18.37
2019-01-03T18:49:16.372Z,18.82
2019-01-03T18:51:46.870Z,17.50
2019-01-03T18:54:18.055Z,14.80
2019-01-03T18:56:48.578Z,13.27
2019-01-03T18:59:18.956Z,15.90
2019-01-03T19:01:49.623Z,15.53
2019-01-03T19:04:19.996Z,12.10
2019-01-03T19:06:50.637Z,14.70
2019-01-03T19:09:21.163Z,19.98
2019-01-03T19:11:52.039Z,15.30
2019-01-03T19:14:22.752Z,15.50
2019-01-03T19:16:53.517Z,14.18
2019-01-03T19:19:23.877Z,14.77
2019-01-03T19:21:54.501Z,17.87
2019-01-03T19:24:24.992Z,20.67
2019-01-03T19:26:55.806Z,17.27
2019-01-03T19:29:26.793Z,18.85
2019-01-03T19:31:57.568Z,19.07
2019-01-03T19:34:28.074Z,20.33
2019-01-03T19:36:59.256Z,20.83
2019-01-03T19:39:30.355Z,23.37
2019-01-03T19:42:00.819Z,21.57
2019-01-03T19:44:31.473Z,24.45
2019-01-03T19:47:03.256Z,22.17
2019-01-03T19:49:34.111Z,24.72
2019-01-03T19:52:07.137Z,18.50
2019-01-03T19:54:38.017Z,20.23
2019-01-03T19:57:08.687Z,20.93
2019-01-03T19:59:40.436Z,30.55
2019-01-03T20:02:11.056Z,21.97
2019-01-03T20:04:41.570Z,74.83
2019-01-03T20:07:11.991Z,59.07
2019-01-03T20:09:42.635Z,24.30
2019-01-03T20:12:13.418Z,20.02
2019-01-03T20:14:43.786Z,17.97
2019-01-03T20:17:14.703Z,21.73
2019-01-03T20:19:46.474Z,29.35
2019-01-03T20:22:16.867Z,17.87
2019-01-03T20:24:47.625Z,18.73
2019-01-03T20:27:18.052Z,16.90
2019-01-03T20:29:48.715Z,15.00
2019-01-03T20:32:19.630Z,27.87
2019-01-03T20:34:50.356Z,16.32
2019-01-03T20:37:21.069Z,23.00
2019-01-03T20:39:51.535Z,20.10
2019-01-03T20:42:21.993Z,21.90
2019-01-03T20:44:52.620Z,19.70
2019-01-03T20:47:23.007Z,22.17
2019-01-03T20:49:53.750Z,20.32
2019-01-03T20:52:24.549Z,19.80
2019-01-03T20:54:54.968Z,21.73
2019-01-03T20:57:25.852Z,15.83
2019-01-03T20:59:56.756Z,15.83
2019-01-03T21:02:27.454Z,17.92
2019-01-03T21:04:57.900Z,17.23
2019-01-03T21:07:28.864Z,17.40
2019-01-03T21:09:59.674Z,19.12
2019-01-03T21:12:30.606Z,17.92
2019-01-03T21:15:01.198Z,18.62
2019-01-03T21:17:31.826Z,20.07
2019-01-03T21:20:02.517Z,20.23
2019-01-03T21:22:33.120Z,19.27
2019-01-03T21:25:03.595Z,20.10
2019-01-03T21:27:34.106Z,18.50
2019-01-03T21:30:05.849Z,22.85
2019-01-03T21:32:36.497Z,21.30
2019-01-03T21:35:06.915Z,20.77
2019-01-03T21:37:37.641Z,27.43
2019-01-03T21:40:09.759Z,30.97
2019-01-03T21:42:40.445Z,23.35
2019-01-03T21:45:10.877Z,20.77
2019-01-03T21:47:41.526Z,22.90
2019-01-03T21:50:13.158Z,52.90
2019-01-03T21:52:44.213Z,26.83
2019-01-03T21:55:14.865Z,23.53
2019-01-03T21:57:45.524Z,17.40
2019-01-03T22:00:17.169Z,20.12
2019-01-03T22:02:49.632Z,22.57
2019-01-03T22:05:20.008Z,24.63
2019-01-03T22:07:50.798Z,22.40
2019-01-03T22:10:21.485Z,18.97
2019-01-03T22:12:52.078Z,21.57
2019-01-03T22:15:22.839Z,18.65
2019-01-03T22:17:53.616Z,22.53
2019-01-03T22:20:24.143Z,17.67
2019-01-03T22:22:55.916Z,19.62
2019-01-03T22:25:26.521Z,19.23
2019-01-03T22:27:56.869Z,20.73
2019-01-03T22:30:27.706Z,19.80
2019-01-03T22:32:58.406Z,18.65
2019-01-03T22:35:28.783Z,19.80
2019-01-03T22:37:59.644Z,26.73
2019-01-03T22:40:30.024Z,20.90
2019-01-03T22:43:01.877Z,17.77
2019-01-03T22:45:32.646Z,20.37
2019-01-03T22:48:03.051Z,18.70
2019-01-03T22:50:33.501Z,16.03
2019-01-03T22:53:04.170Z,22.63
2019-01-03T22:55:34.810Z,20.97
2019-01-03T22:58:05.465Z,20.97
2019-01-03T23:00:43.104Z,23.27
2019-01-03T23:03:13.828Z,23.90
2019-01-03T23:05:44.480Z,18.80
2019-01-03T23:08:14.964Z,21.97
2019-01-03T23:10:45.506Z,23.07
2019-01-03T23:13:15.860Z,22.57
2019-01-03T23:15:46.707Z,22.85
2019-01-03T23:18:17.408Z,18.12
2019-01-03T23:20:48.070Z,20.25
2019-01-03T23:23:18.826Z,22.67
2019-01-03T23:25:49.478Z,23.07
2019-01-03T23:28:19.867Z,18.37
2019-01-03T23:30:50.580Z,19.87
2019-01-03T23:33:21.312Z,22.87
2019-01-03T23:35:51.658Z,22.60
2019-01-03T23:38:22.986Z,16.07
2019-01-03T23:40:53.629Z,24.27
2019-01-03T23:43:23.984Z,19.50
2019-01-03T23:45:54.745Z,23.90
2019-01-03T23:48:25.840Z,21.97
2019-01-03T23:50:56.524Z,19.97
2019-01-03T23:53:27.053Z,25.63
2019-01-03T23:55:59.467Z,18.10
2019-01-03T23:58:29.895Z,17.70
